• Join FlightAware (Why Join?)
  • Login
  • US Flag 
04:50AM EST


 

Airport Tracker/Info


-or-


 

Live Flight TrackerFlight Track Log ✈ ASH2846 ✈ 30-Apr-2012 ✈ KTUS - KPHX

Flight Track Log - Related Links

Times and Time Zones

All times are in EDT time to prevent confusion due to time zone crossing. See the ASH2846 flight status page for this flight to view local times or setup timezone preferences in your user account.

Time Position Orientation Groundspeed Altitude Reporting Facility
EDT Latitude Longitude Course Direction KTS MPH feet Rate Location/Type
10:09AM 32.0937 -110.9271 129° Southeast  Level FlightAware Approximate
10:10AM 32.0611 -110.8794 108° East 214 246 5,100  Level Albuquerque Center
10:11AM 32.0422 -110.8128 North 243 280 7,600 2,280 Climbing Albuquerque Center
10:12AM 32.1069 -110.8103 337° Northwest 274 315 9,500 1,980 Climbing Albuquerque Center
10:13AM 32.1850 -110.8503 338° Northwest 319 367 11,500 2,100 Climbing Albuquerque Center
10:14AM 32.3106 -110.9117 335° Northwest 352 405 14,500 1,920 Climbing Albuquerque Center
10:15AM 32.4008 -110.9622 333° Northwest 362 417 16,100 780 Climbing Albuquerque Center
10:16AM 32.4950 -111.0203 328° Northwest 362 417 16,100  Level Albuquerque Center
10:17AM 32.5886 -111.0908 329° Northwest 372 428 16,100 -60 Level Albuquerque Center
10:18AM 32.6825 -111.1589 326° Northwest 387 445 16,000 -60 Descending Albuquerque Center
10:19AM 32.7739 -111.2322 329° Northwest 394 453 16,000 -420 Level Albuquerque Center
10:20AM 32.8575 -111.2928 328° Northwest 394 453 15,200 -1,080 Descending Albuquerque Center
10:21AM 32.9389 -111.3533 324° Northwest 376 433 13,900 -1,200 Descending Albuquerque Center
10:22AM 33.0058 -111.4111 302° West 334 384 12,800 -1,140 Descending Albuquerque Center
10:23AM 33.0489 -111.4922 302° West 296 341 11,700 -900 Descending Albuquerque Center
10:25AM 33.1500 -111.6833 292° West 290 334 10,000 -540 Descending Phoenix TRACON
10:27AM 33.1833 -111.7833 312° West 290 334 10,000  Level Phoenix TRACON
10:28AM 33.2333 -111.8500 306° West 258 297 10,000  Level Phoenix TRACON
10:29AM 33.2833 -111.9333 309° West 271 312 10,000  Level Phoenix TRACON
10:29AM 33.3167 -111.9833 328° Northwest 288 331 10,000 -360 Level Phoenix TRACON
10:30AM 33.3833 -112.0333 351° North 288 331 9,400 -1,020 Descending Phoenix TRACON
10:31AM 33.4667 -112.0500 331° Northwest 284 327 8,000 -900 Descending Phoenix TRACON
10:32AM 33.5167 -112.0833 270° West 206 237 7,600 -1,080 Descending Phoenix TRACON
10:34AM 33.5167 -112.1667 270° West 188 216 5,700 -1,620 Descending Phoenix TRACON